sensor_id;sensor_type;location;lat;lon;timestamp;pressure;altitude;pressure_sealevel;temperature;humidity
25238;BME280;13185;50.872;5.306;2023-06-22T00:01:27;101461.47;;;22.39;61.49
25238;BME280;13185;50.872;5.306;2023-06-22T00:03:53;101467.25;;;22.36;61.88
25238;BME280;13185;50.872;5.306;2023-06-22T00:06:18;101461.28;;;22.33;61.89
25238;BME280;13185;50.872;5.306;2023-06-22T00:08:44;101461.28;;;22.33;61.64
25238;BME280;13185;50.872;5.306;2023-06-22T00:11:09;101473.22;;;22.32;61.96
25238;BME280;13185;50.872;5.306;2023-06-22T00:13:35;101469.63;;;22.31;61.94
25238;BME280;13185;50.872;5.306;2023-06-22T00:16:00;101460.41;;;22.32;62.31
25238;BME280;13185;50.872;5.306;2023-06-22T00:18:26;101458.38;;;22.34;62.46
25238;BME280;13185;50.872;5.306;2023-06-22T00:20:55;101448.63;;;22.32;61.96
25238;BME280;13185;50.872;5.306;2023-06-22T00:23:22;101458.72;;;22.31;61.75
25238;BME280;13185;50.872;5.306;2023-06-22T00:25:49;101456.81;;;22.32;61.79
25238;BME280;13185;50.872;5.306;2023-06-22T00:28:15;101454.25;;;22.30;62.08
25238;BME280;13185;50.872;5.306;2023-06-22T00:30:40;101459.56;;;22.32;62.21
25238;BME280;13185;50.872;5.306;2023-06-22T00:33:06;101447.78;;;22.31;62.23
25238;BME280;13185;50.872;5.306;2023-06-22T00:35:33;101453.38;;;22.30;62.22
25238;BME280;13185;50.872;5.306;2023-06-22T00:38:17;101453.88;;;22.25;61.87
25238;BME280;13185;50.872;5.306;2023-06-22T00:40:43;101455.75;;;22.25;61.90
25238;BME280;13185;50.872;5.306;2023-06-22T00:43:08;101449.44;;;22.24;61.93
25238;BME280;13185;50.872;5.306;2023-06-22T00:45:34;101453.19;;;22.23;62.10
25238;BME280;13185;50.872;5.306;2023-06-22T00:48:01;101454.03;;;22.24;62.06
25238;BME280;13185;50.872;5.306;2023-06-22T00:50:31;101454.03;;;22.24;62.03
25238;BME280;13185;50.872;5.306;2023-06-22T00:53:01;101436.63;;;22.25;61.91
25238;BME280;13185;50.872;5.306;2023-06-22T00:55:33;101444.13;;;22.23;62.33
25238;BME280;13185;50.872;5.306;2023-06-22T00:58:03;101447.03;;;22.21;62.19
25238;BME280;13185;50.872;5.306;2023-06-22T01:00:31;101450.06;;;22.18;62.26
25238;BME280;13185;50.872;5.306;2023-06-22T01:02:59;101437.59;;;22.15;61.67
25238;BME280;13185;50.872;5.306;2023-06-22T01:08:51;101431.75;;;22.10;61.83
25238;BME280;13185;50.872;5.306;2023-06-22T01:11:36;101435.66;;;22.08;61.49
25238;BME280;13185;50.872;5.306;2023-06-22T01:14:18;101435.81;;;22.06;61.41
25238;BME280;13185;50.872;5.306;2023-06-22T01:16:48;101432.34;;;22.04;61.64
25238;BME280;13185;50.872;5.306;2023-06-22T01:22:08;101434.00;;;21.97;61.19
25238;BME280;13185;50.872;5.306;2023-06-22T01:28:03;101429.88;;;21.93;61.62
25238;BME280;13185;50.872;5.306;2023-06-22T01:30:31;101425.44;;;21.92;62.02
25238;BME280;13185;50.872;5.306;2023-06-22T01:33:15;101424.91;;;21.88;62.12
25238;BME280;13185;50.872;5.306;2023-06-22T01:35:42;101420.59;;;21.86;62.44
25238;BME280;13185;50.872;5.306;2023-06-22T01:38:09;101418.22;;;21.83;62.83
25238;BME280;13185;50.872;5.306;2023-06-22T01:40:54;101412.34;;;21.78;62.84
25238;BME280;13185;50.872;5.306;2023-06-22T01:43:21;101415.09;;;21.78;62.84
25238;BME280;13185;50.872;5.306;2023-06-22T01:45:48;101410.63;;;21.77;62.94
25238;BME280;13185;50.872;5.306;2023-06-22T01:48:14;101410.13;;;21.73;63.26
25238;BME280;13185;50.872;5.306;2023-06-22T01:50:40;101408.56;;;21.71;63.09
25238;BME280;13185;50.872;5.306;2023-06-22T01:53:06;101406.00;;;21.69;63.28
25238;BME280;13185;50.872;5.306;2023-06-22T01:55:32;101403.44;;;21.68;63.82
25238;BME280;13185;50.872;5.306;2023-06-22T01:57:57;101410.38;;;21.62;63.99
25238;BME280;13185;50.872;5.306;2023-06-22T02:00:25;101407.63;;;21.62;63.92
25238;BME280;13185;50.872;5.306;2023-06-22T02:03:18;101404.22;;;21.60;63.72
25238;BME280;13185;50.872;5.306;2023-06-22T02:05:55;101406.94;;;21.60;63.83
25238;BME280;13185;50.872;5.306;2023-06-22T02:08:25;101406.09;;;21.59;63.74
25238;BME280;13185;50.872;5.306;2023-06-22T02:10:54;101396.19;;;21.58;64.43
25238;BME280;13185;50.872;5.306;2023-06-22T02:13:21;101398.06;;;21.58;64.89
25238;BME280;13185;50.872;5.306;2023-06-22T02:15:47;101391.88;;;21.56;65.41
25238;BME280;13185;50.872;5.306;2023-06-22T02:18:13;101402.78;;;21.56;65.85
25238;BME280;13185;50.872;5.306;2023-06-22T02:20:39;101396.66;;;21.54;66.26
25238;BME280;13185;50.872;5.306;2023-06-22T02:23:06;101393.22;;;21.52;66.25
25238;BME280;13185;50.872;5.306;2023-06-22T02:25:34;101391.66;;;21.49;66.63
25238;BME280;13185;50.872;5.306;2023-06-22T02:28:00;101392.84;;;21.47;67.04
25238;BME280;13185;50.872;5.306;2023-06-22T02:30:26;101391.28;;;21.44;67.07
25238;BME280;13185;50.872;5.306;2023-06-22T02:32:52;101390.56;;;21.42;67.36
25238;BME280;13185;50.872;5.306;2023-06-22T02:35:30;101384.25;;;21.42;67.26
25238;BME280;13185;50.872;5.306;2023-06-22T02:38:02;101387.00;;;21.42;67.51
25238;BME280;13185;50.872;5.306;2023-06-22T02:40:28;101389.19;;;21.38;67.64
25238;BME280;13185;50.872;5.306;2023-06-22T02:42:59;101383.88;;;21.37;67.53
25238;BME280;13185;50.872;5.306;2023-06-22T02:45:27;101374.13;;;21.34;68.16
25238;BME280;13185;50.872;5.306;2023-06-22T02:47:53;101362.84;;;21.29;68.66
25238;BME280;13185;50.872;5.306;2023-06-22T02:50:18;101357.72;;;21.26;68.55
25238;BME280;13185;50.872;5.306;2023-06-22T02:52:44;101353.38;;;21.23;68.94
25238;BME280;13185;50.872;5.306;2023-06-22T02:55:10;101348.06;;;21.22;69.04
25238;BME280;13185;50.872;5.306;2023-06-22T02:57:36;101345.66;;;21.19;69.04
25238;BME280;13185;50.872;5.306;2023-06-22T03:00:03;101347.69;;;21.17;69.15
25238;BME280;13185;50.872;5.306;2023-06-22T03:02:42;101337.94;;;21.14;69.25
25238;BME280;13185;50.872;5.306;2023-06-22T03:05:07;101335.53;;;21.11;69.69
25238;BME280;13185;50.872;5.306;2023-06-22T03:07:35;101332.28;;;21.08;69.69
25238;BME280;13185;50.872;5.306;2023-06-22T03:10:02;101338.91;;;21.05;69.99
25238;BME280;13185;50.872;5.306;2023-06-22T03:12:27;101340.91;;;21.03;70.25
25238;BME280;13185;50.872;5.306;2023-06-22T03:14:54;101340.22;;;21.01;70.49
25238;BME280;13185;50.872;5.306;2023-06-22T03:17:19;101344.09;;;20.98;70.71
25238;BME280;13185;50.872;5.306;2023-06-22T03:19:45;101339.84;;;20.96;71.07
25238;BME280;13185;50.872;5.306;2023-06-22T03:22:10;101337.38;;;20.93;71.40
25238;BME280;13185;50.872;5.306;2023-06-22T03:24:36;101343.69;;;20.93;71.12
25238;BME280;13185;50.872;5.306;2023-06-22T03:27:04;101340.44;;;20.90;71.85
25238;BME280;13185;50.872;5.306;2023-06-22T03:29:31;101341.44;;;20.89;72.09
25238;BME280;13185;50.872;5.306;2023-06-22T03:31:56;101344.19;;;20.89;72.11
25238;BME280;13185;50.872;5.306;2023-06-22T03:34:22;101336.00;;;20.89;72.28
25238;BME280;13185;50.872;5.306;2023-06-22T03:36:51;101347.59;;;20.91;72.73
25238;BME280;13185;50.872;5.306;2023-06-22T03:39:16;101347.59;;;20.91;72.63
25238;BME280;13185;50.872;5.306;2023-06-22T03:41:42;101353.91;;;20.91;72.96
25238;BME280;13185;50.872;5.306;2023-06-22T03:44:07;101351.50;;;20.88;73.10
25238;BME280;13185;50.872;5.306;2023-06-22T03:46:37;101362.25;;;20.90;73.41
25238;BME280;13185;50.872;5.306;2023-06-22T03:49:03;101360.69;;;20.87;74.11
25238;BME280;13185;50.872;5.306;2023-06-22T03:51:29;101368.63;;;20.81;74.28
25238;BME280;13185;50.872;5.306;2023-06-22T03:53:54;101362.63;;;20.77;74.69
25238;BME280;13185;50.872;5.306;2023-06-22T03:56:20;101367.50;;;20.73;75.17
25238;BME280;13185;50.872;5.306;2023-06-22T03:58:46;101377.56;;;20.73;75.64
25238;BME280;13185;50.872;5.306;2023-06-22T04:01:11;101369.25;;;20.74;75.74
25238;BME280;13185;50.872;5.306;2023-06-22T04:03:37;101372.66;;;20.77;75.84
25238;BME280;13185;50.872;5.306;2023-06-22T04:06:03;101371.66;;;20.78;76.39
25238;BME280;13185;50.872;5.306;2023-06-22T04:08:29;101377.25;;;20.76;76.70
25238;BME280;13185;50.872;5.306;2023-06-22T04:10:55;101369.94;;;20.77;77.00
25238;BME280;13185;50.872;5.306;2023-06-22T04:13:20;101366.38;;;20.76;77.18
25238;BME280;13185;50.872;5.306;2023-06-22T04:15:46;101363.47;;;20.78;77.14
25238;BME280;13185;50.872;5.306;2023-06-22T04:18:11;101367.22;;;20.77;77.29
25238;BME280;13185;50.872;5.306;2023-06-22T04:20:37;101359.91;;;20.77;78.00
25238;BME280;13185;50.872;5.306;2023-06-22T04:23:02;101359.75;;;20.79;78.25
25238;BME280;13185;50.872;5.306;2023-06-22T04:25:28;101365.19;;;20.79;78.90
25238;BME280;13185;50.872;5.306;2023-06-22T04:27:53;101358.19;;;20.76;79.09
25238;BME280;13185;50.872;5.306;2023-06-22T04:30:19;101361.44;;;20.80;78.87
25238;BME280;13185;50.872;5.306;2023-06-22T04:32:44;101367.91;;;20.79;79.19
25238;BME280;13185;50.872;5.306;2023-06-22T04:35:11;101359.59;;;20.80;79.61
25238;BME280;13185;50.872;5.306;2023-06-22T04:37:37;101353.81;;;20.83;79.88
25238;BME280;13185;50.872;5.306;2023-06-22T04:40:03;101355.41;;;20.86;79.79
25238;BME280;13185;50.872;5.306;2023-06-22T04:42:30;101354.06;;;20.90;79.51
25238;BME280;13185;50.872;5.306;2023-06-22T04:44:57;101358.34;;;20.92;79.27
25238;BME280;13185;50.872;5.306;2023-06-22T04:47:22;101349.03;;;20.95;79.48
25238;BME280;13185;50.872;5.306;2023-06-22T04:49:48;101342.25;;;20.99;79.18
25238;BME280;13185;50.872;5.306;2023-06-22T04:52:13;101349.09;;;21.03;79.09
25238;BME280;13185;50.872;5.306;2023-06-22T04:54:45;101349.94;;;21.03;78.87
25238;BME280;13185;50.872;5.306;2023-06-22T04:57:16;101349.09;;;21.03;78.69
25238;BME280;13185;50.872;5.306;2023-06-22T04:59:41;101355.09;;;21.07;78.43
25238;BME280;13185;50.872;5.306;2023-06-22T05:02:08;101336.88;;;21.07;78.28
25238;BME280;13185;50.872;5.306;2023-06-22T05:04:34;101343.19;;;21.08;78.26
25238;BME280;13185;50.872;5.306;2023-06-22T05:07:06;101330.84;;;21.03;78.65
25238;BME280;13185;50.872;5.306;2023-06-22T05:09:32;101351.59;;;20.96;81.10
25238;BME280;13185;50.872;5.306;2023-06-22T05:11:59;101347.22;;;20.86;83.46
25238;BME280;13185;50.872;5.306;2023-06-22T05:14:27;101358.72;;;20.80;84.98
25238;BME280;13185;50.872;5.306;2023-06-22T05:16:52;101351.72;;;20.77;86.46
25238;BME280;13185;50.872;5.306;2023-06-22T05:19:18;101353.03;;;20.73;87.38
25238;BME280;13185;50.872;5.306;2023-06-22T05:21:43;101353.19;;;20.71;88.58
25238;BME280;13185;50.872;5.306;2023-06-22T05:24:09;101354.34;;;20.69;89.46
25238;BME280;13185;50.872;5.306;2023-06-22T05:26:35;101349.22;;;20.66;90.10
25238;BME280;13185;50.872;5.306;2023-06-22T05:29:02;101346.50;;;20.66;90.81
25238;BME280;13185;50.872;5.306;2023-06-22T05:31:27;101350.06;;;20.66;91.17
25238;BME280;13185;50.872;5.306;2023-06-22T05:33:54;101356.38;;;20.67;92.12
25238;BME280;13185;50.872;5.306;2023-06-22T05:36:20;101348.63;;;20.62;92.58
25238;BME280;13185;50.872;5.306;2023-06-22T05:38:47;101345.91;;;20.62;92.86
25238;BME280;13185;50.872;5.306;2023-06-22T05:41:13;101353.72;;;20.57;92.80
25238;BME280;13185;50.872;5.306;2023-06-22T05:43:39;101354.03;;;20.54;93.24
25238;BME280;13185;50.872;5.306;2023-06-22T05:46:05;101346.84;;;20.53;93.75
25238;BME280;13185;50.872;5.306;2023-06-22T05:48:31;101356.59;;;20.56;93.62
25238;BME280;13185;50.872;5.306;2023-06-22T05:50:56;101359.84;;;20.59;93.82
25238;BME280;13185;50.872;5.306;2023-06-22T05:53:22;101356.53;;;20.65;93.94
25238;BME280;13185;50.872;5.306;2023-06-22T05:55:48;101355.06;;;20.71;93.64
25238;BME280;13185;50.872;5.306;2023-06-22T05:58:13;101355.63;;;20.74;93.98
25238;BME280;13185;50.872;5.306;2023-06-22T06:00:40;101354.13;;;20.80;93.60
25238;BME280;13185;50.872;5.306;2023-06-22T06:03:09;101352.09;;;20.82;93.74
25238;BME280;13185;50.872;5.306;2023-06-22T06:05:35;101355.25;;;20.87;94.25
25238;BME280;13185;50.872;5.306;2023-06-22T06:08:02;101350.00;;;20.94;94.13
25238;BME280;13185;50.872;5.306;2023-06-22T06:10:28;101346.84;;;20.98;94.50
25238;BME280;13185;50.872;5.306;2023-06-22T06:12:55;101349.25;;;21.01;94.68
25238;BME280;13185;50.872;5.306;2023-06-22T06:15:21;101346.91;;;21.07;94.12
25238;BME280;13185;50.872;5.306;2023-06-22T06:17:51;101332.28;;;21.08;94.13
25238;BME280;13185;50.872;5.306;2023-06-22T06:20:21;101330.78;;;21.13;94.06
25238;BME280;13185;50.872;5.306;2023-06-22T06:22:48;101332.41;;;21.24;93.97
25238;BME280;13185;50.872;5.306;2023-06-22T06:25:13;101323.31;;;21.33;94.35
25238;BME280;13185;50.872;5.306;2023-06-22T06:27:42;101330.72;;;21.41;93.69
25238;BME280;13185;50.872;5.306;2023-06-22T06:30:10;101331.81;;;21.48;92.68
25238;BME280;13185;50.872;5.306;2023-06-22T06:32:36;101327.72;;;21.52;92.66
25238;BME280;13185;50.872;5.306;2023-06-22T06:35:01;101329.84;;;21.58;92.13
25238;BME280;13185;50.872;5.306;2023-06-22T06:37:26;101314.50;;;21.65;91.05
25238;BME280;13185;50.872;5.306;2023-06-22T06:39:53;101318.16;;;21.74;90.45
25238;BME280;13185;50.872;5.306;2023-06-22T06:42:18;101310.47;;;21.77;90.42
25238;BME280;13185;50.872;5.306;2023-06-22T06:44:45;101313.09;;;21.87;90.54
25238;BME280;13185;50.872;5.306;2023-06-22T06:47:10;101304.97;;;21.95;89.93
25238;BME280;13185;50.872;5.306;2023-06-22T06:49:36;101301.84;;;22.16;88.89
25238;BME280;13185;50.872;5.306;2023-06-22T06:52:01;101300.75;;;22.35;88.17
25238;BME280;13185;50.872;5.306;2023-06-22T06:54:27;101284.72;;;22.48;87.17
25238;BME280;13185;50.872;5.306;2023-06-22T06:56:52;101275.34;;;22.59;86.52
25238;BME280;13185;50.872;5.306;2023-06-22T06:59:18;101281.72;;;22.75;85.84
25238;BME280;13185;50.872;5.306;2023-06-22T07:01:43;101277.34;;;22.99;84.77
25238;BME280;13185;50.872;5.306;2023-06-22T07:04:09;101259.38;;;23.21;84.03
25238;BME280;13185;50.872;5.306;2023-06-22T07:06:35;101259.56;;;23.36;82.07
25238;BME280;13185;50.872;5.306;2023-06-22T07:09:00;101247.22;;;23.31;81.33
25238;BME280;13185;50.872;5.306;2023-06-22T07:11:26;101244.47;;;23.31;80.98
25238;BME280;13185;50.872;5.306;2023-06-22T07:13:52;101240.75;;;23.24;79.94
25238;BME280;13185;50.872;5.306;2023-06-22T07:16:17;101242.28;;;23.11;79.57
25238;BME280;13185;50.872;5.306;2023-06-22T07:18:43;101239.38;;;23.12;79.52
25238;BME280;13185;50.872;5.306;2023-06-22T07:21:09;101244.53;;;23.15;79.55
25238;BME280;13185;50.872;5.306;2023-06-22T07:23:34;101235.59;;;23.21;78.89
25238;BME280;13185;50.872;5.306;2023-06-22T07:26:00;101234.06;;;23.27;78.75
25238;BME280;13185;50.872;5.306;2023-06-22T07:28:31;101231.34;;;23.35;78.67
25238;BME280;13185;50.872;5.306;2023-06-22T07:31:02;101227.56;;;23.36;78.48
25238;BME280;13185;50.872;5.306;2023-06-22T07:33:29;101220.03;;;23.30;77.76
25238;BME280;13185;50.872;5.306;2023-06-22T07:35:54;101220.91;;;23.22;78.32
25238;BME280;13185;50.872;5.306;2023-06-22T07:38:20;101218.16;;;23.22;78.19
25238;BME280;13185;50.872;5.306;2023-06-22T07:40:45;101209.78;;;23.24;77.85
25238;BME280;13185;50.872;5.306;2023-06-22T07:43:10;101223.63;;;23.22;77.94
25238;BME280;13185;50.872;5.306;2023-06-22T07:45:38;101199.19;;;23.21;77.24
25238;BME280;13185;50.872;5.306;2023-06-22T07:48:05;101213.41;;;23.08;77.45
25238;BME280;13185;50.872;5.306;2023-06-22T07:50:30;101208.09;;;23.07;78.02
25238;BME280;13185;50.872;5.306;2023-06-22T07:52:56;101218.00;;;23.16;77.96
25238;BME280;13185;50.872;5.306;2023-06-22T07:55:22;101216.44;;;23.21;77.49
25238;BME280;13185;50.872;5.306;2023-06-22T07:57:48;101216.44;;;23.29;77.75
25238;BME280;13185;50.872;5.306;2023-06-22T08:00:14;101209.94;;;23.39;77.47
25238;BME280;13185;50.872;5.306;2023-06-22T08:02:44;101216.44;;;23.46;77.78
25238;BME280;13185;50.872;5.306;2023-06-22T08:05:10;101208.19;;;23.62;77.45
25238;BME280;13185;50.872;5.306;2023-06-22T08:07:37;101204.56;;;23.78;77.16
25238;BME280;13185;50.872;5.306;2023-06-22T08:10:04;101208.56;;;23.98;76.70
25238;BME280;13185;50.872;5.306;2023-06-22T08:12:29;101211.22;;;24.14;75.92
25238;BME280;13185;50.872;5.306;2023-06-22T08:14:55;101216.09;;;24.27;75.86
25238;BME280;13185;50.872;5.306;2023-06-22T08:17:22;101209.06;;;24.41;75.24
25238;BME280;13185;50.872;5.306;2023-06-22T08:19:48;101203.16;;;24.52;74.98
25238;BME280;13185;50.872;5.306;2023-06-22T08:22:14;101205.34;;;24.57;75.22
25238;BME280;13185;50.872;5.306;2023-06-22T08:24:39;101198.28;;;24.62;74.33
25238;BME280;13185;50.872;5.306;2023-06-22T08:27:07;101198.75;;;24.66;73.94
25238;BME280;13185;50.872;5.306;2023-06-22T08:29:34;101194.25;;;24.73;73.54
25238;BME280;13185;50.872;5.306;2023-06-22T08:32:00;101191.13;;;24.76;73.77
25238;BME280;13185;50.872;5.306;2023-06-22T08:34:25;101189.25;;;24.76;73.25
25238;BME280;13185;50.872;5.306;2023-06-22T08:36:53;101181.13;;;24.83;72.70
25238;BME280;13185;50.872;5.306;2023-06-22T08:39:19;101179.25;;;24.84;71.72
25238;BME280;13185;50.872;5.306;2023-06-22T08:41:46;101174.16;;;24.81;71.34
25238;BME280;13185;50.872;5.306;2023-06-22T08:44:11;101171.66;;;24.71;70.52
25238;BME280;13185;50.872;5.306;2023-06-22T08:46:37;101178.47;;;24.75;71.02
25238;BME280;13185;50.872;5.306;2023-06-22T08:49:04;101179.31;;;24.75;71.18
25238;BME280;13185;50.872;5.306;2023-06-22T08:51:29;101180.78;;;24.63;70.91
25238;BME280;13185;50.872;5.306;2023-06-22T08:53:55;101182.53;;;24.56;71.13
25238;BME280;13185;50.872;5.306;2023-06-22T08:56:20;101187.97;;;24.41;71.43
25238;BME280;13185;50.872;5.306;2023-06-22T08:58:46;101186.31;;;24.32;72.01
25238;BME280;13185;50.872;5.306;2023-06-22T09:01:11;101178.09;;;24.32;72.66
25238;BME280;13185;50.872;5.306;2023-06-22T09:03:37;101182.88;;;24.30;72.28
25238;BME280;13185;50.872;5.306;2023-06-22T09:06:03;101167.47;;;24.29;72.50
25238;BME280;13185;50.872;5.306;2023-06-22T09:08:28;101168.47;;;24.36;72.45
25238;BME280;13185;50.872;5.306;2023-06-22T09:10:54;101173.09;;;24.36;71.79
25238;BME280;13185;50.872;5.306;2023-06-22T09:13:19;101166.91;;;24.42;72.18
25238;BME280;13185;50.872;5.306;2023-06-22T09:15:45;101157.44;;;24.44;72.35
25238;BME280;13185;50.872;5.306;2023-06-22T09:18:11;101150.56;;;24.48;71.42
25238;BME280;13185;50.872;5.306;2023-06-22T09:20:37;101159.47;;;24.51;71.55
25238;BME280;13185;50.872;5.306;2023-06-22T09:23:02;101167.00;;;24.48;71.40
25238;BME280;13185;50.872;5.306;2023-06-22T09:25:28;101173.84;;;24.53;72.15
25238;BME280;13185;50.872;5.306;2023-06-22T09:27:53;101174.13;;;24.58;72.12
25238;BME280;13185;50.872;5.306;2023-06-22T09:30:19;101179.81;;;24.56;71.92
25238;BME280;13185;50.872;5.306;2023-06-22T09:32:44;101183.78;;;24.54;71.79
25238;BME280;13185;50.872;5.306;2023-06-22T09:35:10;101187.94;;;24.50;71.90
25238;BME280;13185;50.872;5.306;2023-06-22T09:37:38;101200.47;;;24.44;71.86
25238;BME280;13185;50.872;5.306;2023-06-22T09:40:04;101208.00;;;24.42;71.99
25238;BME280;13185;50.872;5.306;2023-06-22T09:42:36;101218.34;;;24.32;72.21
25238;BME280;13185;50.872;5.306;2023-06-22T09:45:02;101223.66;;;24.25;72.88
25238;BME280;13185;50.872;5.306;2023-06-22T09:47:29;101239.28;;;24.16;73.92
25238;BME280;13185;50.872;5.306;2023-06-22T09:49:54;101245.69;;;24.09;75.54
25238;BME280;13185;50.872;5.306;2023-06-22T09:52:21;101245.72;;;24.01;76.31
25238;BME280;13185;50.872;5.306;2023-06-22T09:54:47;101242.81;;;23.94;77.27
25238;BME280;13185;50.872;5.306;2023-06-22T09:57:13;101239.09;;;23.87;78.30
25238;BME280;13185;50.872;5.306;2023-06-22T09:59:38;101238.56;;;23.83;78.71
25238;BME280;13185;50.872;5.306;2023-06-22T10:02:06;101243.75;;;23.78;79.08
25238;BME280;13185;50.872;5.306;2023-06-22T10:04:31;101244.63;;;23.71;78.96
25238;BME280;13185;50.872;5.306;2023-06-22T10:06:56;101261.22;;;23.69;79.49
25238;BME280;13185;50.872;5.306;2023-06-22T10:09:22;101259.53;;;23.68;80.01
25238;BME280;13185;50.872;5.306;2023-06-22T10:11:48;101267.56;;;23.61;82.32
25238;BME280;13185;50.872;5.306;2023-06-22T10:14:13;101272.16;;;23.53;82.63
25238;BME280;13185;50.872;5.306;2023-06-22T10:16:39;101265.34;;;23.41;84.00
25238;BME280;13185;50.872;5.306;2023-06-22T10:19:06;101266.38;;;23.31;87.33
25238;BME280;13185;50.872;5.306;2023-06-22T10:21:32;101265.19;;;23.18;88.33
25238;BME280;13185;50.872;5.306;2023-06-22T10:23:58;101259.88;;;23.00;89.75
25238;BME280;13185;50.872;5.306;2023-06-22T10:26:24;101248.44;;;22.88;90.27
25238;BME280;13185;50.872;5.306;2023-06-22T10:28:50;101236.13;;;22.84;90.42
25238;BME280;13185;50.872;5.306;2023-06-22T10:31:15;101226.34;;;22.82;91.38
25238;BME280;13185;50.872;5.306;2023-06-22T10:33:42;101211.31;;;22.77;91.98
25238;BME280;13185;50.872;5.306;2023-06-22T10:36:10;101205.66;;;22.71;92.18
25238;BME280;13185;50.872;5.306;2023-06-22T10:38:35;101206.72;;;22.62;92.96
25238;BME280;13185;50.872;5.306;2023-06-22T10:41:01;101217.78;;;22.52;94.03
25238;BME280;13185;50.872;5.306;2023-06-22T10:43:27;101210.78;;;22.41;94.76
25238;BME280;13185;50.872;5.306;2023-06-22T10:45:52;101208.34;;;22.38;96.20
25238;BME280;13185;50.872;5.306;2023-06-22T10:48:18;101199.31;;;22.38;96.63
25238;BME280;13185;50.872;5.306;2023-06-22T10:50:43;101201.19;;;22.45;97.81
25238;BME280;13185;50.872;5.306;2023-06-22T10:53:09;101198.28;;;22.47;97.83
25238;BME280;13185;50.872;5.306;2023-06-22T10:55:34;101189.59;;;22.52;98.02
25238;BME280;13185;50.872;5.306;2023-06-22T10:58:00;101189.44;;;22.53;98.20
25238;BME280;13185;50.872;5.306;2023-06-22T11:00:25;101179.84;;;22.49;100.00
25238;BME280;13185;50.872;5.306;2023-06-22T11:02:51;101175.75;;;22.45;100.00
25238;BME280;13185;50.872;5.306;2023-06-22T11:05:16;101166.69;;;22.44;100.00
25238;BME280;13185;50.872;5.306;2023-06-22T11:07:43;101145.19;;;22.41;100.00
25238;BME280;13185;50.872;5.306;2023-06-22T11:10:09;101140.91;;;22.31;100.00
25238;BME280;13185;50.872;5.306;2023-06-22T11:12:34;101138.16;;;22.39;100.00
25238;BME280;13185;50.872;5.306;2023-06-22T11:15:00;101139.03;;;22.56;100.00
25238;BME280;13185;50.872;5.306;2023-06-22T11:17:26;101122.47;;;22.73;100.00
25238;BME280;13185;50.872;5.306;2023-06-22T11:19:51;101126.06;;;22.90;100.00
25238;BME280;13185;50.872;5.306;2023-06-22T11:22:17;101118.50;;;23.09;100.00
25238;BME280;13185;50.872;5.306;2023-06-22T11:24:42;101111.16;;;23.09;100.00
25238;BME280;13185;50.872;5.306;2023-06-22T11:27:08;101108.03;;;23.20;100.00
25238;BME280;13185;50.872;5.306;2023-06-22T11:29:33;101103.22;;;23.30;100.00
25238;BME280;13185;50.872;5.306;2023-06-22T11:31:59;101088.66;;;23.38;100.00
25238;BME280;13185;50.872;5.306;2023-06-22T11:37:15;101082.13;;;23.47;100.00
25238;BME280;13185;50.872;5.306;2023-06-22T11:39:41;101082.47;;;23.44;99.88
25238;BME280;13185;50.872;5.306;2023-06-22T11:42:07;101077.16;;;23.43;99.06
25238;BME280;13185;50.872;5.306;2023-06-22T11:44:33;101071.41;;;23.29;97.21
25238;BME280;13185;50.872;5.306;2023-06-22T11:46:58;101068.56;;;23.15;96.67
25238;BME280;13185;50.872;5.306;2023-06-22T11:49:26;101068.06;;;23.03;96.54
25238;BME280;13185;50.872;5.306;2023-06-22T11:51:52;101068.59;;;22.98;96.61
25238;BME280;13185;50.872;5.306;2023-06-22T11:54:17;101059.25;;;22.93;96.34
25238;BME280;13185;50.872;5.306;2023-06-22T11:56:43;101052.09;;;22.84;96.92
25238;BME280;13185;50.872;5.306;2023-06-22T11:59:08;101058.88;;;22.71;98.26
25238;BME280;13185;50.872;5.306;2023-06-22T12:01:33;101064.03;;;22.58;98.92
25238;BME280;13185;50.872;5.306;2023-06-22T12:03:59;101060.97;;;22.37;99.62
25238;BME280;13185;50.872;5.306;2023-06-22T12:06:25;101059.63;;;22.33;100.00
25238;BME280;13185;50.872;5.306;2023-06-22T12:08:50;101066.09;;;22.24;100.00
25238;BME280;13185;50.872;5.306;2023-06-22T12:11:15;101077.03;;;22.15;100.00
25238;BME280;13185;50.872;5.306;2023-06-22T12:13:41;101081.63;;;22.07;100.00
25238;BME280;13185;50.872;5.306;2023-06-22T12:16:06;101077.47;;;21.95;100.00
25238;BME280;13185;50.872;5.306;2023-06-22T12:18:32;101054.94;;;21.93;100.00
25238;BME280;13185;50.872;5.306;2023-06-22T12:20:58;101049.81;;;21.81;100.00
25238;BME280;13185;50.872;5.306;2023-06-22T12:23:23;101038.53;;;21.76;100.00
25238;BME280;13185;50.872;5.306;2023-06-22T12:25:49;101036.31;;;21.72;100.00
25238;BME280;13185;50.872;5.306;2023-06-22T12:28:14;101026.56;;;21.61;100.00
25238;BME280;13185;50.872;5.306;2023-06-22T12:30:40;101008.28;;;21.53;100.00
25238;BME280;13185;50.872;5.306;2023-06-22T12:33:05;101005.22;;;21.48;100.00
25238;BME280;13185;50.872;5.306;2023-06-22T12:35:31;101018.88;;;21.48;100.00
25238;BME280;13185;50.872;5.306;2023-06-22T12:37:56;101029.78;;;21.48;100.00
25238;BME280;13185;50.872;5.306;2023-06-22T12:40:21;101021.06;;;21.45;100.00
25238;BME280;13185;50.872;5.306;2023-06-22T12:42:47;101028.03;;;21.39;100.00
25238;BME280;13185;50.872;5.306;2023-06-22T12:45:12;101021.38;;;21.42;100.00
25238;BME280;13185;50.872;5.306;2023-06-22T12:47:38;101017.81;;;21.41;100.00
25238;BME280;13185;50.872;5.306;2023-06-22T12:50:04;101005.66;;;21.36;100.00
25238;BME280;13185;50.872;5.306;2023-06-22T12:52:30;100996.50;;;21.37;100.00
25238;BME280;13185;50.872;5.306;2023-06-22T12:54:57;100992.53;;;21.31;100.00
25238;BME280;13185;50.872;5.306;2023-06-22T12:57:23;100969.88;;;21.30;100.00